Terminal Aerodrome Forecast
Issued by NWS

Home | Current Version | Previous Version | Text Only | Print | Product List | Glossary On
Versions: 1 2 3 4 5 6 7 8 9 10 11 12 13 14 15 16 17 18 19 20 21 22 23 24
000
FTUS43 KDLH 301700
TAFHIB
TAF
KHIB 301735Z 3018/3118 30011KT P6SM SCT060
     FM301900 31012KT P6SM VCSH SCT040 BKN070
      TEMPO 3019/3022 6SM TSRA BKN040CB
     FM310100 30004KT P6SM SCT070
     FM310700 VRB02KT 5SM BR FEW070
      TEMPO 3109/3112 1/2SM FG BKN004
     FM311500 32007KT P6SM FEW050=

USA.gov is the U.S. government's official web portal to all federal, state and local government web resources and services.